logo tempoitalia

Diretta Meteo Redwood Falls, Stati Uniti (USA)lunedì 31 agosto ore 00:53

Mappa
Sereno 23 °C Sereno 24 Ore: T.min 19 T.max 32
Ponente Sud/Sud-Est Km/h 16.7 Punto di rugiada: 22 °C Umidità: 94% Visibilità: 10 Km
Il sole sorge alle: 06:42 Il sole tramonta alle: 19:58
31 Agosto 2026 00:53 tempo osservato: Sereno Sereno 23 94 1006 vento: Nord S/SE 16.7
30 Agosto 2026 23:53 tempo osservato: Sereno Sereno 23 94 1007 vento: Nord N 0
30 Agosto 2026 22:53 tempo osservato: Sereno Sereno 24 88 1007 vento: Nord SE 13
30 Agosto 2026 21:53 tempo osservato: Sereno Sereno 25 88 1006 vento: Nord SE 13
30 Agosto 2026 20:53 tempo osservato: Sereno Sereno 26 83 1006 vento: Nord SE 13
30 Agosto 2026 19:53 tempo osservato: Poco Nuvoloso Poco Nuvoloso 28 78 1006 vento: Nord E/SE 13
30 Agosto 2026 18:53 tempo osservato: Sereno Sereno 30 62 1006 vento: Nord SE 18.5
30 Agosto 2026 17:53 tempo osservato: Sereno Sereno 32 59 1005 vento: Nord E/SE 18.5
30 Agosto 2026 16:53 tempo osservato: Sereno Sereno 32 59 1006 vento: Nord E 16.7
30 Agosto 2026 15:53 tempo osservato: Sereno Sereno 32 59 1006 vento: Nord E 16.7
30 Agosto 2026 14:53 tempo osservato: Sereno Sereno 31 62 1007 vento: Nord E/SE 14.8
30 Agosto 2026 13:53 tempo osservato: Sereno Sereno 29 70 1007 vento: Nord E 14.8
30 Agosto 2026 12:53 tempo osservato: Sereno Sereno 28 69 1007 vento: Nord E 20.3
30 Agosto 2026 11:53 tempo osservato: Sereno Sereno 26 78 1008 vento: Nord E 13
30 Agosto 2026 10:53 tempo osservato: Sereno Sereno 23 88 1008 vento: Nord E/NE 7.4
30 Agosto 2026 10:29 tempo osservato: Sereno Sereno 23 88 1008 vento: Nord E/NE 11.1
30 Agosto 2026 10:07 tempo osservato: Molto Nuvoloso Molto Nuvoloso 22 94 1008 vento: Nord E/NE 11.1
30 Agosto 2026 09:53 tempo osservato: Sereno Sereno 22 88 1008 vento: Nord E/NE 9.3
30 Agosto 2026 08:53 tempo osservato: Foschia Foschia 21 88 1007 vento: Nord E/NE 11.1
30 Agosto 2026 08:39 tempo osservato: Foschia Foschia 20 93 1007 vento: Nord E/NE 11.1
30 Agosto 2026 08:12 tempo osservato: Foschia Foschia 20 93 1008 vento: Nord E/NE 11.1
30 Agosto 2026 07:53 tempo osservato: Foschia Foschia 19 100 1008 vento: Nord NE 9.3
30 Agosto 2026 06:53 tempo osservato: Foschia Foschia 19 100 1007 vento: Nord E 9.3
30 Agosto 2026 06:21 tempo osservato: Foschia Foschia 19 100 1007 vento: Nord NE 7.4
30 Agosto 2026 05:53 tempo osservato: Foschia Foschia 19 100 1007 vento: Nord E/NE 7.4
30 Agosto 2026 05:44 tempo osservato: Foschia Foschia 19 100 1007 vento: Nord N 0
30 Agosto 2026 05:18 tempo osservato: Foschia Foschia 19 100 1007 vento: Nord NE 9.3
30 Agosto 2026 04:53 tempo osservato: Foschia Foschia 19 100 1008 vento: Nord NE 7.4
30 Agosto 2026 04:38 tempo osservato: Foschia Foschia 19 100 1008 vento: Nord E/NE 7.4
30 Agosto 2026 03:53 tempo osservato: Sereno Sereno 20 93 1008 vento: Nord N 5.5
30 Agosto 2026 02:53 tempo osservato: Sereno Sereno 21 94 1008 vento: Nord E 7.4
30 Agosto 2026 01:53 tempo osservato: Sereno Sereno 21 94 1008 vento: Nord E 7.4